Latest Weather Observations for Coober Pedy Airport

IDS60801

Issued at 9:01 pm CST Thursday 25 August 2016 (issued every 30 minutes, with the page automatically refreshed every 10 minutes)

About weather observations | Map of weather stations | Latest weather observations for SA | Other Formats
Station Details ID: 016090 Name: COOBER PEDY AIRPORT Lat: -29.03 Lon: 134.72 Height: 225.0 m
Data from the previous 72 hours. | See also: Recent months at Coober Pedy Airport
Date/Time
CST
Temp
°C
App
Temp
°C
Dew
Point
°C
Rel
Hum
%
Delta-T
°C
Wind Press
QNH
hPa
Press
MSL
hPa
Rain since
9am
mm
Dir  Spd
km/h
Gust
km/h
Spd
kts
Gust
kts
25/09:00pm 9.0 5.0 5.0 76 1.8 SW 15 17 8 9 1022.8 1022.6 0.0
25/08:30pm 9.9 6.4 5.3 73 2.1 SW 13 15 7 8 1022.6 1022.4 -
25/08:00pm 10.1 6.1 5.1 71 2.3 SW 15 17 8 9 1022.3 1022.1 -
25/07:30pm 10.6 6.6 4.9 68 2.6 SW 15 17 8 9 1021.8 1021.7 -
25/07:00pm 11.4 6.6 4.8 64 3.0 SSW 19 20 10 11 1021.3 1021.2 -
25/06:30pm 12.2 6.9 5.1 62 3.3 SSW 22 30 12 16 1020.8 1020.7 -
25/06:00pm 12.6 7.5 4.1 56 3.9 SSW 20 24 11 13 1020.4 1020.3 -
25/05:30pm 13.1 8.5 3.5 52 4.3 S 17 24 9 13 1020.0 1019.9 -
25/05:00pm 12.9 7.7 3.8 54 4.1 SW 20 30 11 16 1020.0 1019.9 -
25/04:30pm 13.5 7.8 2.7 48 4.8 SSW 22 30 12 16 1019.6 1019.5 -
25/04:00pm 13.0 5.5 3.4 52 4.3 SSW 32 37 17 20 1019.2 1019.0 -
25/03:30pm 13.9 8.7 2.2 45 5.2 WSW 19 24 10 13 1019.0 1018.8 -
25/03:00pm 14.1 8.9 3.3 48 4.9 W 20 28 11 15 1018.9 1018.7 -
25/02:30pm 12.9 8.7 3.6 53 4.2 WSW 15 24 8 13 1019.1 1018.9 0.2
25/02:00pm 12.4 9.9 4.6 59 3.6 W 7 11 4 6 1019.2 1019.0 0.2
25/01:30pm 10.7 8.1 5.9 72 2.2 WNW 9 13 5 7 1019.6 1019.5 0.2
25/01:00pm 10.1 5.4 5.9 75 2.0 WSW 20 28 11 15 1019.9 1019.8 0.0
25/12:30pm 12.5 8.5 2.9 52 4.3 WSW 13 20 7 11 1019.8 1019.7 0.0
25/12:00pm 12.6 8.4 3.6 54 4.1 SW 15 24 8 13 1020.1 1020.0 0.0
25/11:30am 11.9 7.0 4.2 59 3.5 SW 19 30 10 16 1020.3 1020.2 0.0
25/11:00am 11.2 5.3 3.7 60 3.4 SW 24 32 13 17 1020.6 1020.5 0.0
25/10:30am 10.5 4.1 5.3 70 2.4 SW 28 33 15 18 1020.5 1020.4 0.0
25/10:02am 10.6 6.0 5.4 70 2.4 SW 19 26 10 14 1020.4 - 0.0
25/10:00am 10.5 5.6 5.3 70 2.4 SW 20 26 11 14 1020.4 1020.3 0.0
25/09:45am 10.7 5.9 5.7 71 2.3 SW 20 26 11 14 1020.5 - 0.0
25/09:30am 10.8 6.4 6.4 74 2.1 SSW 19 24 10 13 1020.4 1020.3 0.0
25/09:00am 9.6 - 6.7 82 1.4 - - - - - 1020.0 1019.9 -
25/08:30am 8.8 4.9 6.9 88 0.9 SSW 17 22 9 12 1019.6 1019.5 0.0
25/08:00am 8.4 5.4 7.8 96 0.3 SSW 13 15 7 8 1019.3 1019.2 0.0
25/07:30am 7.6 3.7 7.2 97 0.2 SW 17 20 9 11 1018.9 1018.7 0.0
25/07:00am 7.8 2.9 7.1 95 0.3 SW 22 28 12 15 1018.6 1018.4 0.0
25/06:30am 7.8 3.2 6.6 92 0.6 SW 20 26 11 14 1018.3 1018.1 0.0
25/06:00am 7.9 2.8 5.9 87 0.9 SW 22 26 12 14 1017.8 1017.6 0.0
25/05:30am 7.0 2.3 5.2 88 0.8 WSW 19 26 10 14 1017.4 1017.2 0.0
25/05:00am 5.9 2.0 3.6 85 1.0 WSW 13 17 7 9 1016.9 1016.8 0.0
25/04:30am 5.7 2.1 2.7 81 1.2 SW 11 13 6 7 1016.5 1016.4 0.0
25/04:00am 6.4 2.8 3.2 80 1.4 SW 11 11 6 6 1016.3 1016.2 0.0
25/03:30am 6.2 2.6 3.0 80 1.3 WSW 11 13 6 7 1016.6 1016.5 0.0
25/03:00am 6.5 2.5 3.1 79 1.4 WSW 13 15 7 8 1016.7 1016.6 0.0
25/02:30am 6.6 2.6 2.7 76 1.6 WSW 13 15 7 8 1016.7 1016.6 0.0
25/02:00am 7.4 2.7 3.1 74 1.8 WSW 17 17 9 9 1016.8 1016.7 0.0
25/01:30am 7.3 3.3 2.6 72 2.0 WSW 13 13 7 7 1017.0 1016.9 0.0
25/01:00am 8.0 4.8 2.9 70 2.2 SW 9 11 5 6 1016.9 1016.8 0.0
25/12:30am 8.6 5.4 2.8 67 2.5 SW 9 11 5 6 1017.2 1017.1 0.0
25/12:00am 10.1 7.3 3.4 63 2.9 S 7 9 4 5 1017.2 1017.1 0.0
 
Date/Time
CST
Temp
°C
App
Temp
°C
Dew
Point
°C
Rel
Hum
%
Delta-T
°C
Wind Press
QNH
hPa
Press
MSL
hPa
Rain since
9am
mm
Dir  Spd
km/h
Gust
km/h
Spd
kts
Gust
kts
24/11:30pm 10.6 6.6 2.7 58 3.4 SSW 13 15 7 8 1017.6 1017.4 0.0
24/11:00pm 11.4 6.1 1.9 52 4.1 SSW 19 20 10 11 1017.7 1017.5 0.0
24/10:30pm 11.8 6.2 0.0 44 4.9 SW 19 26 10 14 1017.7 1017.5 0.0
24/10:00pm 11.5 7.0 -0.3 44 4.8 WSW 13 13 7 7 1017.4 1017.2 0.0
24/09:30pm 12.5 8.0 -0.4 41 5.3 WSW 13 15 7 8 1017.4 1017.2 0.0
24/09:00pm 13.9 8.7 -0.2 38 5.9 WSW 17 19 9 10 1017.1 1017.0 0.0
24/08:30pm 14.4 8.8 -0.1 37 6.1 WSW 19 20 10 11 1016.9 1016.8 0.0
24/08:00pm 14.4 9.1 -0.5 36 6.3 WSW 17 20 9 11 1016.8 1016.7 0.0
24/07:30pm 15.4 9.7 -0.8 33 6.8 WSW 19 22 10 12 1016.6 1016.5 0.0
24/07:00pm 16.4 10.4 -1.2 30 7.4 WSW 20 28 11 15 1016.3 1016.2 0.0
24/06:30pm 16.6 10.9 -1.0 30 7.5 WSW 19 24 10 13 1016.1 1016.0 0.0
24/06:00pm 17.3 11.3 -1.4 28 7.9 W 20 32 11 17 1015.8 1015.7 0.0
24/05:30pm 18.2 11.9 -1.1 27 8.3 W 22 30 12 16 1015.6 1015.5 0.0
24/05:00pm 18.9 13.0 -1.0 26 8.6 WSW 20 28 11 15 1015.3 1015.1 0.0
24/04:30pm 18.1 11.8 -0.7 28 8.1 W 22 28 12 15 1015.2 1015.0 0.0
24/04:00pm 18.0 11.7 -0.8 28 8.1 WSW 22 30 12 16 1015.1 1014.9 0.0
24/03:30pm 18.5 11.5 -0.8 27 8.4 WSW 26 37 14 20 1015.2 1015.0 0.0
24/03:00pm 18.1 11.2 0.3 30 7.9 W 26 37 14 20 1015.3 1015.1 0.0
24/02:30pm 19.2 12.8 0.8 29 8.3 WSW 24 39 13 21 1015.4 1015.2 0.0
24/02:00pm 18.8 12.4 0.9 30 8.1 WSW 24 35 13 19 1015.6 1015.5 0.0
24/01:30pm 18.8 13.2 1.3 31 7.9 WSW 20 32 11 17 1015.9 1015.8 0.0
24/01:00pm 17.4 12.3 1.0 33 7.3 WNW 17 28 9 15 1016.5 1016.4 0.0
24/12:30pm 17.6 12.3 1.6 34 7.2 W 19 28 10 15 1016.8 1016.7 0.0
24/12:00pm 16.9 12.3 1.8 36 6.8 W 15 20 8 11 1017.1 1017.0 0.0
24/11:30am 16.0 11.7 1.3 37 6.5 WSW 13 19 7 10 1017.6 1017.4 0.0
24/11:00am 15.9 12.8 1.2 37 6.5 WNW 7 13 4 7 1017.8 1017.6 0.0
24/10:30am 15.0 12.0 2.2 42 5.7 WSW 7 13 4 7 1017.9 1017.7 0.0
24/10:00am 13.9 10.8 3.4 49 4.8 WSW 9 13 5 7 1017.9 1017.7 0.0
24/09:30am 12.6 9.4 3.3 53 4.2 WSW 9 11 5 6 1018.0 1017.8 0.0
24/09:00am 11.3 8.7 3.1 57 3.6 WSW 6 7 3 4 1017.9 1017.7 -
24/08:30am 9.3 6.1 3.1 65 2.7 W 9 11 5 6 1017.8 1017.6 -
24/08:00am 7.2 3.9 2.7 73 1.9 W 9 11 5 6 1017.7 1017.5 -
24/07:30am 4.9 0.8 2.1 82 1.1 W 13 15 7 8 1017.4 1017.2 -
24/07:00am 3.2 -1.5 0.6 83 1.0 W 15 15 8 8 1016.9 1016.8 -
24/06:30am 3.4 -1.4 0.5 81 1.1 WSW 15 17 8 9 1016.7 1016.6 -
24/06:00am 3.7 -0.6 1.1 83 1.0 SW 13 13 7 7 1016.4 1016.3 -
24/05:30am 3.8 -0.2 0.8 81 1.2 SSW 11 13 6 7 1016.1 1016.0 -
24/05:00am 5.5 2.2 2.5 81 1.2 SSE 9 11 5 6 1015.7 1015.6 -
24/04:30am 4.5 0.5 0.6 76 1.5 SW 11 11 6 6 1015.8 1015.7 -
24/04:00am 4.6 0.7 1.3 79 1.3 WSW 11 11 6 6 1015.7 1015.6 -
24/03:30am 5.2 0.2 1.5 77 1.5 WSW 17 17 9 9 1015.8 1015.7 -
24/03:00am 5.7 1.1 1.4 74 1.7 WSW 15 17 8 9 1015.8 1015.7 0.0
24/02:30am 8.0 3.5 2.0 66 2.5 SSE 15 15 8 8 1015.7 1015.6 -
24/02:00am 6.7 2.0 1.2 68 2.2 S 15 17 8 9 1015.7 1015.6 -
24/01:30am 7.8 3.5 1.2 63 2.7 SE 13 15 7 8 1015.7 1015.6 -
24/01:00am 9.2 5.0 1.4 58 3.3 SE 13 15 7 8 1015.7 1015.6 -
24/12:30am 9.2 5.0 1.6 59 3.2 SE 13 15 7 8 1015.7 1015.6 -
24/12:00am 8.3 4.0 0.8 59 3.1 ESE 13 13 7 7 1015.8 1015.7 -
 
Date/Time
CST
Temp
°C
App
Temp
°C
Dew
Point
°C
Rel
Hum
%
Delta-T
°C
Wind Press
QNH
hPa
Press
MSL
hPa
Rain since
9am
mm
Dir  Spd
km/h
Gust
km/h
Spd
kts
Gust
kts
23/11:30pm 10.0 4.6 1.1 54 3.7 SE 19 24 10 13 1015.9 1015.8 -
23/11:00pm 9.4 4.4 1.1 56 3.4 S 17 19 9 10 1016.0 1015.9 -
23/10:30pm 9.1 4.1 1.5 59 3.2 S 17 17 9 9 1016.0 1015.9 -
23/10:00pm 9.4 4.2 0.1 52 3.8 S 17 19 9 10 1015.9 1015.8 -
23/09:30pm 9.9 4.8 1.0 54 3.7 S 17 19 9 10 1015.9 1015.8 -
23/09:00pm 10.4 5.2 0.2 49 4.2 SSW 17 22 9 12 1015.7 1015.6 0.0
23/08:30pm 9.4 5.3 0.1 52 3.8 SSW 11 13 6 7 1015.5 1015.4 -
23/08:00pm 11.1 6.6 -0.1 46 4.6 S 13 15 7 8 1015.3 1015.1 -
23/07:30pm 12.2 7.2 -1.3 39 5.5 SSW 15 17 8 9 1014.9 1014.7 -
23/07:00pm 11.6 8.3 -0.2 44 4.9 S 7 11 4 6 1014.4 1014.2 -
23/06:30pm 13.7 9.5 -0.7 37 6.0 ESE 11 13 6 7 1013.8 1013.6 -
23/06:00pm 15.0 10.2 0.1 36 6.4 ESE 15 17 8 9 1013.4 1013.2 -
23/05:30pm 15.6 12.2 -0.6 33 6.9 SSE 7 9 4 5 1013.2 1013.0 -
23/05:00pm 15.7 10.0 -0.5 33 6.9 ESE 19 24 10 13 1012.9 1012.7 -
23/04:30pm 16.7 11.7 -1.4 29 7.6 SE 15 24 8 13 1012.8 1012.6 -
23/04:00pm 16.8 10.8 -1.3 29 7.7 SE 20 30 11 16 1012.4 1012.3 -
23/03:30pm 16.9 10.9 -1.7 28 7.8 SE 20 30 11 16 1012.2 1012.1 -
23/03:00pm 16.5 11.1 -1.6 29 7.6 ESE 17 22 9 12 1012.3 1012.2 -
23/02:30pm 16.6 11.2 -1.0 30 7.5 E 17 24 9 13 1012.5 1012.4 -
23/02:00pm 17.0 11.3 -0.7 30 7.6 E 19 28 10 15 1012.6 1012.5 -
23/01:30pm 16.0 8.9 -1.5 30 7.3 ESE 26 33 14 18 1013.2 1013.0 -
23/01:00pm 16.6 10.8 -0.1 32 7.2 E 20 30 11 16 1013.4 1013.2 -
23/12:30pm 15.8 10.3 1.9 39 6.2 ESE 20 30 11 16 1013.9 1013.7 -
23/12:00pm 15.8 10.2 1.5 38 6.4 ESE 20 33 11 18 1014.3 1014.1 -
23/11:30am 15.6 - 3.7 45 5.5 - - - - - 1014.7 1014.5 -
23/06:30am 5.5 1.2 3.5 87 0.8 ESE 15 17 8 9 1013.6 1013.4 0.0
23/06:00am 5.5 1.2 3.3 86 0.9 ESE 15 15 8 8 1013.4 1013.2 0.0
23/05:30am 6.0 2.2 3.7 85 1.0 ESE 13 13 7 7 1013.2 1013.0 0.0
23/05:00am 6.4 2.9 3.7 83 1.2 ENE 11 13 6 7 1013.2 1013.0 0.0
23/04:30am 6.8 3.0 3.8 81 1.3 NE 13 13 7 7 1012.9 1012.7 0.0
23/04:00am 7.6 3.4 4.0 78 1.6 NNE 15 17 8 9 1013.2 1013.0 0.0
23/03:30am 7.5 3.3 3.7 77 1.6 N 15 15 8 8 1013.3 1013.1 0.0
23/03:00am 7.6 3.7 3.6 76 1.7 NNE 13 15 7 8 1013.3 1013.1 0.0
23/02:30am 7.9 4.1 3.9 76 1.7 NNE 13 13 7 7 1013.4 1013.2 0.0
23/02:00am 8.6 5.6 4.0 73 2.0 NE 9 11 5 6 1013.2 1013.0 0.0
23/01:30am 9.0 6.0 4.2 72 2.1 ENE 9 11 5 6 1013.2 1013.0 0.0
23/01:00am 8.2 4.0 3.9 74 1.9 ENE 15 15 8 8 1013.4 1013.2 0.0
23/12:30am 9.0 5.6 4.0 71 2.2 ENE 11 13 6 7 1013.7 1013.5 0.0
23/12:00am 8.9 5.1 4.1 72 2.1 NE 13 13 7 7 1014.1 1013.9 0.0
 
Date/Time
CST
Temp
°C
App
Temp
°C
Dew
Point
°C
Rel
Hum
%
Delta-T
°C
Wind Press
QNH
hPa
Press
MSL
hPa
Rain since
9am
mm
Dir  Spd
km/h
Gust
km/h
Spd
kts
Gust
kts
22/11:30pm 9.4 6.0 4.0 69 2.4 NE 11 11 6 6 1014.3 1014.1 0.0
22/11:00pm 10.1 6.3 4.0 66 2.7 NE 13 13 7 7 1014.4 1014.2 0.0
22/10:30pm 10.3 6.5 4.0 65 2.8 ENE 13 13 7 7 1014.5 1014.3 0.0
22/10:00pm 10.9 7.1 3.9 62 3.1 ENE 13 15 7 8 1014.5 1014.3 0.0
22/09:30pm 12.0 7.8 4.0 58 3.6 ENE 15 17 8 9 1014.5 1014.3 0.0

Other Formats:

Comma delimited format used in spreadsheet applications
http://www.bom.gov.au/fwo/IDS60801/IDS60801.95458.axf

JavaScript Object Notation format (JSON) in row-major order
http://www.bom.gov.au/fwo/IDS60801/IDS60801.95458.json